Flight Track Log - Related Links

Times and Time Zones

All times are in EDT time to prevent confusion due to time zone crossing. See the THY2190 flight status page for this flight to view local times or setup timezone preferences in your user account.

Time Position Orientation Groundspeed Altitude Reporting Facility
EDT Latitude Longitude Course Direction KTS MPH feet Rate Location/Type
Thu 05:02:43 PM 40.9830 28.8130 272° West 3 3  Level FlightAware ADS-B
Thu 05:03:23 PM 40.9830 28.8140 90° East 1 1 125 Level FlightAware ADS-B
Thu 05:06:00 PM 40.9375 29.0594 104° East  Level Estimated
Thu 05:07:00 PM 40.9200 29.1532 104° East  Level Estimated
Thu 05:08:00 PM 40.9025 29.2468 104° East  Level Estimated
Thu 05:09:00 PM 40.8848 29.3404 104° East  Level Estimated
Thu 05:11:19 PM 40.9710 28.8120 180° South 2 2  Level FlightAware ADS-B
Thu 05:11:47 PM 40.9700 28.8120 180° South 8 9 376 Level FlightAware ADS-B
Thu 05:14:00 PM 40.9322 29.0201 103° East  Level Estimated
Thu 05:15:00 PM 40.9150 29.1139 104° East  Level Estimated
Thu 05:15:34 PM 41.0060 28.8060 104° East 148 170 1,600  Level FlightAware ADS-B
Thu 05:15:58 PM 41.0390 28.8060 360° North 192 221 2,500 2,182 Climbing FlightAware ADS-B
Thu 05:16:29 PM 41.0680 28.8090 North 222 255 3,600 2,348 Climbing FlightAware ADS-B
Thu 05:16:44 PM 41.0780 28.8200 40° Northeast 227 261 4,300 2,400 Climbing FlightAware ADS-B
Thu 05:17:04 PM 41.0870 28.8500 68° East 245 282 5,000 2,618 Climbing FlightAware ADS-B
Thu 05:17:39 PM 41.0940 28.9040 80° East 270 311 6,700 2,862 Climbing FlightAware ADS-B
Thu 05:18:09 PM 41.1020 28.9590 79° East 275 316 8,100 2,280 Climbing FlightAware ADS-B
Thu 05:18:29 PM 41.1060 28.9930 81° East 284 327 8,600 1,200 Climbing FlightAware ADS-B
Thu 05:18:59 PM 41.1140 29.0470 79° East 328 377 9,100 1,333 Climbing FlightAware ADS-B
Thu 05:19:14 PM 41.1170 29.0790 83° East 344 396 9,600 2,250 Climbing FlightAware ADS-B
Thu 05:19:39 PM 41.1050 29.1250 109° East 352 405 10,600 2,400 Climbing FlightAware ADS-B
Thu 05:20:29 PM 41.0560 29.2220 124° Southeast 367 422 12,600 2,200 Climbing FlightAware ADS-B
Thu 05:21:09 PM 41.0230 29.2930 122° Southeast 377 434 13,900 1,553 Climbing FlightAware ADS-B
Thu 05:21:54 PM 40.9770 29.3910 122° Southeast 406 467 14,800 1,341 Climbing FlightAware ADS-B
Thu 05:22:34 PM 40.9340 29.4810 122° Southeast 429 494 15,800 1,823 Climbing FlightAware ADS-B
Thu 05:23:13 PM 40.8920 29.5710 122° Southeast 435 501 17,200 2,025 Climbing FlightAware ADS-B
Thu 05:23:54 PM 40.8480 29.6630 122° Southeast 440 506 18,500 2,233 Climbing FlightAware ADS-B
Thu 05:24:39 PM 40.8000 29.7650 122° Southeast 435 501 20,400 3,288 Climbing FlightAware ADS-B
Thu 05:25:38 PM 40.7420 29.8870 122° Southeast 393 452 24,200 2,940 Climbing FlightAware ADS-B
Thu 05:26:19 PM 40.7020 29.9700 122° Southeast 398 458 25,300 1,630 Climbing FlightAware ADS-B
Thu 05:26:59 PM 40.6600 30.0580 122° Southeast 409 471 26,400 1,275 Climbing FlightAware ADS-B
Thu 05:27:39 PM 40.6180 30.1450 122° Southeast 423 487 27,000 450 Climbing FlightAware ADS-B
Thu 05:28:19 PM 40.5810 30.2230 122° Southeast 426 490 27,000  Level FlightAware ADS-B
Thu 05:29:04 PM 40.5310 30.3250 123° Southeast 427 491 27,000  Level FlightAware ADS-B
Thu 05:29:44 PM 40.4900 30.4100 122° Southeast 426 490 27,000  Level FlightAware ADS-B
Thu 05:30:30 PM 40.4410 30.5100 123° Southeast 425 489 27,000  Level FlightAware ADS-B
Thu 05:31:10 PM 40.3970 30.6010 122° Southeast 424 488 27,000  Level FlightAware ADS-B
Thu 05:31:49 PM 40.3520 30.6930 123° Southeast 425 489 27,000  Level FlightAware ADS-B
Thu 05:32:25 PM 40.3190 30.7730 118° Southeast 431 496 27,000  Level FlightAware ADS-B
Thu 05:33:10 PM 40.3020 30.8870 101° East 436 502 27,000  Level FlightAware ADS-B
Thu 05:33:50 PM 40.2910 30.9930 98° East 435 501 27,000 -675 Level FlightAware ADS-B
Thu 05:34:30 PM 40.2790 31.1000 98° East 439 505 26,100 -1,725 Descending FlightAware ADS-B
Thu 05:35:10 PM 40.2680 31.2070 98° East 431 496 24,700 -2,025 Descending FlightAware ADS-B
Thu 05:35:50 PM 40.2570 31.3090 98° East 420 483 23,400 -1,835 Descending FlightAware ADS-B
Thu 05:36:35 PM 40.2450 31.4210 98° East 411 473 22,100 -1,765 Descending FlightAware ADS-B
Thu 05:37:15 PM 40.2340 31.5160 99° East 402 463 20,900 -1,725 Descending FlightAware ADS-B
Thu 05:37:55 PM 40.2130 31.6090 106° East 387 445 19,800 -2,682 Descending FlightAware ADS-B
Thu 05:38:40 PM 40.1870 31.7100 109° East 407 468 17,100 -2,894 Descending FlightAware ADS-B
Thu 05:39:20 PM 40.1620 31.8050 109° East 396 456 15,700 -2,080 Descending FlightAware ADS-B
Thu 05:39:55 PM 40.1420 31.8820 109° East 387 445 14,500 -2,100 Descending FlightAware ADS-B
Thu 05:40:40 PM 40.1170 31.9750 109° East 376 433 12,900 -2,175 Descending FlightAware ADS-B
Thu 05:41:15 PM 40.0960 32.0540 109° East 366 421 11,600 -1,840 Descending FlightAware ADS-B
Thu 05:41:55 PM 40.0740 32.1320 110° East 346 398 10,600 -1,553 Descending FlightAware ADS-B
Thu 05:42:40 PM 40.0510 32.2210 109° East 327 376 9,400 -1,500 Descending FlightAware ADS-B
Thu 05:42:51 PM 40.0460 32.2390 110° East 321 369 9,200 -857 Descending FlightAware ADS-B
Thu 05:43:15 PM 40.0350 32.2830 108° East 300 345 8,900 -857 Descending FlightAware ADS-B
Thu 05:43:40 PM 40.0250 32.3200 109° East 285 328 8,500 -1,080 Descending FlightAware ADS-B
Thu 05:44:05 PM 40.0130 32.3650 109° East 284 327 8,000 -545 Descending FlightAware ADS-B
Thu 05:44:35 PM 40.0000 32.4140 109° East 285 328 8,000 -200 Level FlightAware ADS-B
Thu 05:45:05 PM 39.9860 32.4610 111° Southeast 285 328 7,800 -873 Descending FlightAware ADS-B
Thu 05:45:30 PM 39.9740 32.5030 110° East 285 328 7,200 -1,418 Descending FlightAware ADS-B
Thu 05:46:00 PM 39.9610 32.5470 111° Southeast 281 323 6,500 -933 Descending FlightAware ADS-B
Thu 05:46:15 PM 39.9530 32.5750 110° East 281 323 6,500  Level FlightAware ADS-B
Thu 05:46:40 PM 39.9470 32.6160 101° East 279 321 6,500  Level FlightAware ADS-B
Thu 05:47:00 PM 39.9450 32.6450 95° East 275 316 6,500  Level FlightAware ADS-B
Thu 05:47:25 PM 39.9420 32.6910 95° East 278 320 6,500  Level FlightAware ADS-B
Thu 05:47:55 PM 39.9380 32.7410 96° East 277 319 6,500  Level FlightAware ADS-B
Thu 05:48:20 PM 39.9440 32.7800 79° East 262 302 6,500  Level FlightAware ADS-B
Thu 05:48:40 PM 39.9530 32.8030 63° Northeast 239 275 6,500  Level FlightAware ADS-B
Thu 05:48:50 PM 39.9570 32.8150 66° East 223 257 6,500 -300 Level FlightAware ADS-B
Thu 05:49:20 PM 39.9730 32.8480 58° Northeast 209 241 6,300 -700 Descending FlightAware ADS-B
Thu 05:49:50 PM 39.9960 32.8710 37° Northeast 200 230 5,800 -1,108 Descending FlightAware ADS-B
Thu 05:50:25 PM 40.0240 32.8980 36° Northeast 195 224 5,100 -1,067 Descending FlightAware ADS-B
Thu 05:50:35 PM 40.0280 32.9010 30° Northeast 191 220 5,000 -698 Descending FlightAware ADS-B
Thu 05:51:08 PM 40.0500 32.9230 37° Northeast 147 169 4,600 -842 Descending FlightAware ADS-B
Thu 05:51:32 PM 40.0630 32.9350 35° Northeast 131 151 4,200 -712 Descending FlightAware ADS-B
Thu 05:52:07 PM 40.0800 32.9500 34° Northeast 132 152 3,900 -522 Descending FlightAware ADS-B
Thu 05:52:18 PM 40.0850 32.9550 37° Northeast 132 152 3,800 -750 Descending FlightAware ADS-B
Thu 05:52:55 PM 40.1040 32.9740 37° Northeast 132 152 3,300 -811 Descending FlightAware ADS-B
Thu 05:53:30 PM 40.1210 32.9900 36° Northeast 120 138 -5,657 Descending FlightAware ADS-B
Thu 05:54:12 PM 40.1290 32.9970 34° Northeast 38 44  Level FlightAware ADS-B
Thu 05:55:40 PM 40.1220 32.9940 198° South 11 13  Level FlightAware ADS-B
Thu 05:56:35 PM 40.1200 32.9910 229° Southwest 15 17  Level FlightAware ADS-B
Thu 05:57:05 PM 40.1180 32.9900 201° Southwest 16 18  Level FlightAware ADS-B
Thu 05:57:15 PM 40.1170 32.9890 217° Southwest 15 17  Level FlightAware ADS-B
Thu 05:57:40 PM 40.1160 32.9890 180° South 6 7  Level FlightAware ADS-B
Thu 05:58:35 PM 40.1150 32.9890 180° South 6 7  Level FlightAware ADS-B
Thu 05:59:05 PM 40.1150 32.9900 90° East 1 1  Level FlightAware ADS-B
Thu 06:01:00 PM 40.1281 32.9951 17° North  Level Estimated
Thu 06:02:00 PM 40.1281 32.9951 49° Northeast  Level Estimated
Thu 06:03:00 PM 40.1281 32.9951 49° Northeast  Level Estimated
Thu 06:04:00 PM 40.1281 32.9951 49° Northeast  Level Estimated

Login

Don't have an account? Register now (free) for customized features, flight alerts, and more!